82V

Pine Bluffs Municipal Airport

Pine Bluffs, Wyoming, USA
METAR K82V 210955Z AUTO 25003KT 10SM CLR 08/08 A3019 RMK AO2
Observed Flight Rules
Jun-21 @ 09:55 UTC (6 minutes ago) Visual Flight Rules
Wind Visibility Clouds
250° at 3 knots 10 miles
  • Clear skies
Temperatures Readings
Current 8°C / 46°F
Dewpoint 8°C / 46°F
Humidity 100%
Altimeter 30.19" Hg
Pressure 1022 hPa
Elevation 1570
METAR K82V 210955Z AUTO 25003KT 10SM CLR 08/08 A3019 RMK AO2
Observed Flight Rules
Jun-21 @ 09:55 UTC
(6 minutes ago)
VFR
Wind Visibility
250° at 3 knots 10 miles
Clouds
  • Clear skies
Temperature Dewpoint
8°C / 46°F 8°C / 46°F
Humidity Altimeter Pressure
100% 30.19" Hg 1022 hPa